Time;durP1;ratioP1;P1;durP2;ratioP2;P2;SDS_P1;SDS_P2;PMS_P1;PMS_P2;Temp;Humidity;BMP_temperature;BMP_pressure;BME280_temperature;BME280_humidity;BME280_pressure;Samples;Min_cycle;Max_cycle;Signal;HPM_P1;HPM_P2
2022/03/19 00:00:24;;;;;;;1.73;0.80;;;;;;;14.86;65.37;100973.88;5031326;28;20576;-77
2022/03/19 00:02:53;;;;;;;1.73;0.60;;;;;;;14.86;64.50;100968.66;5031327;28;20050;-75
2022/03/19 00:05:21;;;;;;;0.77;0.60;;;;;;;14.85;66.24;100964.31;5031347;28;20491;-75
2022/03/19 00:07:50;;;;;;;3.47;1.90;;;;;;;14.88;66.69;100961.75;5031390;28;20089;-75
2022/03/19 00:10:20;;;;;;;3.35;1.20;;;;;;;14.91;66.04;100966.13;5031537;28;20037;-75
2022/03/19 00:12:49;;;;;;;1.45;0.85;;;;;;;14.93;65.58;100962.69;5026364;28;20502;-74
2022/03/19 00:15:19;;;;;;;2.03;1.08;;;;;;;14.95;65.04;100962.72;5022130;28;20068;-74
2022/03/19 00:17:48;;;;;;;3.30;1.10;;;;;;;14.93;64.54;100969.63;5031086;28;20052;-73
2022/03/19 00:20:17;;;;;;;1.88;0.68;;;;;;;14.93;64.50;100969.63;5031073;28;20088;-73
2022/03/19 00:22:46;;;;;;;1.30;0.60;;;;;;;14.91;63.51;100966.13;5030123;28;20053;-73
2022/03/19 00:25:14;;;;;;;0.82;0.50;;;;;;;14.90;63.43;100960.03;5030110;28;20053;-73
2022/03/19 00:27:43;;;;;;;0.75;0.40;;;;;;;14.88;63.30;100957.41;5050594;28;20060;-74
2022/03/19 00:30:12;;;;;;;1.73;0.60;;;;;;;14.88;63.96;100953.94;5038089;28;20105;-73
2022/03/19 00:32:42;;;;;;;1.13;0.70;;;;;;;14.88;64.25;100956.53;5038371;28;20049;-75
2022/03/19 00:35:12;;;;;;;6.20;0.95;;;;;;;14.90;64.37;100954.84;5030825;28;20103;-78
2022/03/19 00:37:47;;;;;;;0.90;0.75;;;;;;;14.92;65.74;100945.31;5030346;28;20045;-77
2022/03/19 00:40:17;;;;;;;1.58;0.70;;;;;;;14.93;66.21;100938.38;5030244;28;20503;-79
2022/03/19 00:42:47;;;;;;;1.10;0.60;;;;;;;14.96;65.91;100941.03;5030727;28;20045;-76
2022/03/19 00:45:16;;;;;;;1.35;0.90;;;;;;;14.97;65.88;100945.38;5030981;28;20042;-77
2022/03/19 00:47:46;;;;;;;1.77;0.95;;;;;;;14.98;66.26;100939.31;5030757;28;20450;-76
2022/03/19 00:50:15;;;;;;;2.40;0.90;;;;;;;14.97;65.96;100928.00;5030665;28;20053;-75
2022/03/19 00:52:43;;;;;;;3.50;1.10;;;;;;;14.94;63.79;100932.31;5030177;28;20100;-78
2022/03/19 00:55:12;;;;;;;1.10;0.73;;;;;;;14.90;64.83;100927.91;5030566;28;20047;-75
2022/03/19 00:57:42;;;;;;;3.50;1.27;;;;;;;14.82;63.63;100926.06;5030427;28;20099;-75
2022/03/19 01:00:12;;;;;;;2.45;0.88;;;;;;;14.76;63.75;100925.97;5030674;28;20487;-75
2022/03/19 01:02:42;;;;;;;1.80;0.93;;;;;;;14.73;64.54;100920.72;5029649;28;20123;-75
2022/03/19 01:05:14;;;;;;;2.38;1.00;;;;;;;14.71;63.21;100922.44;5029978;28;20504;-76
2022/03/19 01:07:45;;;;;;;1.52;0.63;;;;;;;14.71;64.42;100917.22;5029475;28;20049;-76
2022/03/19 01:10:15;;;;;;;1.45;0.70;;;;;;;14.70;63.67;100920.66;5031059;28;20118;-76
2022/03/19 01:12:44;;;;;;;1.13;0.73;;;;;;;14.70;64.47;100915.44;5041491;28;20056;-76
2022/03/19 01:15:12;;;;;;;1.45;0.70;;;;;;;14.67;64.27;100910.22;5029623;28;20045;-75
2022/03/19 01:17:41;;;;;;;2.38;0.60;;;;;;;14.68;62.82;100916.28;5015454;28;20107;-75
2022/03/19 01:20:12;;;;;;;0.75;0.47;;;;;;;14.65;63.20;100912.78;5030057;28;20056;-76
2022/03/19 01:22:42;;;;;;;3.92;0.60;;;;;;;14.59;63.58;100917.91;5029458;28;20049;-76
2022/03/19 01:25:12;;;;;;;2.28;0.40;;;;;;;14.56;63.12;100927.38;5032365;28;20084;-77
2022/03/19 01:27:41;;;;;;;0.20;0.20;;;;;;;14.52;62.57;100922.94;5030401;28;20057;-76
2022/03/19 01:30:12;;;;;;;0.85;0.43;;;;;;;14.49;62.95;100925.50;5028302;28;20041;-76
2022/03/19 01:32:47;;;;;;;2.03;0.30;;;;;;;14.40;62.19;100921.03;5031071;28;20108;-76
2022/03/19 01:35:19;;;;;;;0.30;0.20;;;;;;;14.34;62.51;100921.81;5029143;28;20518;-76
2022/03/19 01:37:48;;;;;;;0.83;0.30;;;;;;;14.32;62.54;100918.31;5029097;28;20049;-76
2022/03/19 01:40:19;;;;;;;0.40;0.22;;;;;;;14.28;63.15;100916.50;5028810;28;20180;-75
2022/03/19 01:42:48;;;;;;;0.88;0.38;;;;;;;14.22;62.31;100917.28;5029189;28;20132;-77
2022/03/19 01:45:18;;;;;;;0.95;0.30;;;;;;;14.17;62.29;100916.31;5029596;28;20384;-75
2022/03/19 01:47:47;;;;;;;1.65;0.20;;;;;;;14.14;63.21;100924.06;5050205;28;20454;-75
2022/03/19 01:50:18;;;;;;;0.57;0.20;;;;;;;14.11;63.57;100923.13;5049676;28;20045;-76
2022/03/19 01:52:46;;;;;;;0.20;0.15;;;;;;;14.06;62.92;100910.03;5049490;28;20049;-75
2022/03/19 01:55:17;;;;;;;0.73;0.20;;;;;;;14.04;63.73;100910.03;5049809;28;20049;-75
2022/03/19 01:57:47;;;;;;;1.70;0.30;;;;;;;13.98;63.35;100912.50;5049660;28;20106;-76
2022/03/19 02:00:17;;;;;;;0.28;0.10;;;;;;;13.94;65.14;100909.81;5049367;28;20107;-77
2022/03/19 02:02:47;;;;;;;0.70;0.10;;;;;;;13.93;64.21;100915.88;5048202;28;20079;-76
2022/03/19 02:05:18;;;;;;;1.70;0.20;;;;;;;13.89;64.51;100911.47;5044788;28;20069;-78
2022/03/19 02:07:48;;;;;;;0.52;0.28;;;;;;;13.80;64.96;100912.16;5035433;28;20106;-76
2022/03/19 02:10:18;;;;;;;0.30;0.20;;;;;;;13.81;65.22;100908.72;5047985;28;20041;-76
2022/03/19 02:12:47;;;;;;;0.80;0.32;;;;;;;13.79;65.47;100915.63;5047128;28;20056;-76
2022/03/19 02:15:16;;;;;;;1.23;0.20;;;;;;;13.75;65.62;100898.22;5048131;28;20056;-76
2022/03/19 02:17:45;;;;;;;0.28;0.22;;;;;;;13.73;65.53;100895.56;5048821;28;20083;-76
2022/03/19 02:20:13;;;;;;;0.38;0.22;;;;;;;13.72;65.55;100887.72;5049079;28;20094;-76
2022/03/19 02:25:34;;;;;;;0.68;0.30;;;;;;;13.70;66.11;100894.63;5050726;28;20134;-77
2022/03/19 02:25:36;;;;;;;0.40;0.20;;;;;;;13.68;65.91;100891.16;5049795;28;20045;-76
2022/03/19 02:28:05;;;;;;;1.03;0.50;;;;;;;13.67;66.19;100890.25;5046977;28;20049;-76
2022/03/19 02:30:35;;;;;;;1.55;0.40;;;;;;;13.63;65.85;100885.84;5035625;28;20115;-76
2022/03/19 02:33:03;;;;;;;1.50;0.70;;;;;;;13.62;66.41;100871.97;5038162;28;20582;-76
2022/03/19 02:35:32;;;;;;;7.57;2.63;;;;;;;13.60;66.89;100870.19;5028205;28;20099;-76
2022/03/19 02:38:00;;;;;;;2.90;1.73;;;;;;;13.52;67.38;100866.56;5027947;28;20132;-75
2022/03/19 02:40:29;;;;;;;3.30;1.10;;;;;;;13.47;67.54;100874.28;5027957;28;20049;-76
2022/03/19 02:42:59;;;;;;;1.75;0.43;;;;;;;13.45;67.65;100875.97;5028684;28;21109;-77
2022/03/19 02:45:28;;;;;;;0.38;0.30;;;;;;;13.44;67.77;100881.13;5029000;28;20144;-77
2022/03/19 02:47:59;;;;;;;0.55;0.30;;;;;;;13.35;68.33;100871.44;5028741;28;20527;-76
2022/03/19 02:50:29;;;;;;;0.80;0.32;;;;;;;13.29;68.11;100869.59;5017414;28;20053;-77
2022/03/19 02:52:59;;;;;;;0.52;0.30;;;;;;;13.27;69.08;100865.19;5032534;28;20046;-77
2022/03/19 02:55:32;;;;;;;0.50;0.30;;;;;;;13.24;68.65;100862.50;5032241;28;20046;-76
2022/03/19 02:58:03;;;;;;;0.40;0.20;;;;;;;13.16;69.65;100860.63;5019625;28;20141;-77
2022/03/19 03:00:31;;;;;;;1.05;0.35;;;;;;;13.09;71.36;100852.69;5033289;28;20088;-79
2022/03/19 03:03:00;;;;;;;1.67;0.40;;;;;;;13.04;72.04;100850.00;5017991;28;20096;-78
2022/03/19 03:05:29;;;;;;;0.35;0.13;;;;;;;13.02;73.42;100838.69;5032331;28;20080;-78
2022/03/19 03:07:57;;;;;;;0.20;0.20;;;;;;;13.03;73.90;100837.81;5032419;28;20053;-78
2022/03/19 03:10:26;;;;;;;1.00;0.40;;;;;;;13.04;73.23;100843.94;5030791;28;20064;-80
2022/03/19 03:12:55;;;;;;;2.55;0.60;;;;;;;13.00;73.42;100846.44;5032094;28;20096;-80
2022/03/19 03:15:25;;;;;;;1.65;0.50;;;;;;;12.96;72.63;100835.97;5032476;28;20049;-80
2022/03/19 03:17:53;;;;;;;0.77;0.55;;;;;;;12.90;73.56;100835.84;5034313;28;20057;-80
2022/03/19 03:20:22;;;;;;;0.32;0.25;;;;;;;12.85;74.14;100824.47;5035131;28;20569;-78
2022/03/19 03:22:51;;;;;;;1.25;0.55;;;;;;;12.78;75.34;100813.97;5047525;28;20102;-78
2022/03/19 03:25:19;;;;;;;1.38;0.47;;;;;;;12.76;74.94;100813.06;5052546;28;20127;-79
2022/03/19 03:27:48;;;;;;;1.65;0.73;;;;;;;12.75;74.21;100808.69;5052915;28;20106;-78
2022/03/19 03:30:18;;;;;;;2.25;0.57;;;;;;;12.76;73.95;100812.19;5051160;28;20100;-79
2022/03/19 03:32:48;;;;;;;0.85;0.50;;;;;;;12.73;73.77;100812.09;5034805;28;20057;-79
2022/03/19 03:35:17;;;;;;;0.77;0.65;;;;;;;12.69;74.22;100811.16;5032244;28;20084;-79
2022/03/19 03:37:45;;;;;;;2.28;0.50;;;;;;;12.63;75.10;100813.63;5051520;28;20680;-80
2022/03/19 03:40:14;;;;;;;2.40;0.60;;;;;;;12.55;75.14;100813.47;5051675;28;20136;-80
2022/03/19 03:42:43;;;;;;;0.60;0.35;;;;;;;12.52;75.79;100820.28;5051857;28;20044;-74
2022/03/19 03:45:11;;;;;;;1.05;0.45;;;;;;;12.48;75.54;100815.88;5051779;28;20041;-75
2022/03/19 03:47:40;;;;;;;1.20;0.50;;;;;;;12.46;76.13;100810.66;5051926;28;20142;-73
2022/03/19 03:50:10;;;;;;;1.02;0.60;;;;;;;12.44;76.75;100808.84;5051781;28;20103;-76
2022/03/19 03:52:39;;;;;;;0.68;0.57;;;;;;;12.42;76.21;100798.44;5051414;28;20049;-77
2022/03/19 03:55:09;;;;;;;1.55;0.57;;;;;;;12.38;76.25;100790.56;5052081;28;20581;-76
2022/03/19 03:57:38;;;;;;;1.02;0.63;;;;;;;12.34;77.01;100793.06;5051554;28;20426;-74
2022/03/19 04:00:09;;;;;;;1.45;0.70;;;;;;;12.31;77.29;100794.75;5051668;28;20110;-76
2022/03/19 04:02:38;;;;;;;2.10;0.57;;;;;;;12.22;79.49;100790.22;5050196;28;20053;-76
2022/03/19 04:05:07;;;;;;;3.83;0.40;;;;;;;12.13;82.68;100787.41;5051534;28;20049;-75
2022/03/19 04:07:37;;;;;;;2.70;0.73;;;;;;;12.05;82.81;100782.03;5051877;28;20187;-77
2022/03/19 04:10:07;;;;;;;1.73;0.63;;;;;;;11.98;82.00;100785.34;5051259;28;20526;-77
2022/03/19 04:12:36;;;;;;;1.30;0.60;;;;;;;11.93;80.37;100777.44;5051806;28;20049;-77
2022/03/19 04:15:05;;;;;;;2.75;0.70;;;;;;;11.87;80.74;100769.50;5053969;28;20045;-75
2022/03/19 04:17:34;;;;;;;1.80;0.40;;;;;;;11.93;81.71;100771.34;5051230;28;20108;-77
2022/03/19 04:20:03;;;;;;;1.45;0.55;;;;;;;11.91;84.05;100776.53;5051081;28;20052;-76
2022/03/19 04:22:37;;;;;;;0.73;0.47;;;;;;;11.87;83.80;100766.91;5050570;28;20049;-80
2022/03/19 04:25:11;;;;;;;1.58;0.45;;;;;;;11.87;84.42;100769.50;5051162;28;20041;-78
2022/03/19 04:27:39;;;;;;;1.10;0.47;;;;;;;11.86;83.79;100766.81;5050631;28;20151;-79
2022/03/19 04:30:11;;;;;;;0.63;0.40;;;;;;;11.86;82.88;100762.50;5049079;28;20513;-77
2022/03/19 04:32:42;;;;;;;1.35;0.60;;;;;;;11.86;81.93;100761.63;5043473;28;20120;-78
2022/03/19 04:38:00;;;;;;;1.30;0.60;;;;;;;11.78;82.69;100748.50;5026783;28;20104;-79
2022/03/19 04:40:28;;;;;;;0.43;0.30;;;;;;;11.76;84.39;100750.19;5022635;28;20093;-79
2022/03/19 04:42:57;;;;;;;1.65;0.60;;;;;;;11.72;85.03;100750.94;5030211;28;20077;-79
2022/03/19 04:45:26;;;;;;;1.10;0.68;;;;;;;11.67;86.61;100755.13;5030519;28;20132;-80
2022/03/19 04:47:55;;;;;;;4.80;0.65;;;;;;;11.62;85.59;100756.75;5030530;28;20050;-82
2022/03/19 04:50:24;;;;;;;1.17;0.52;;;;;;;11.62;84.61;100756.75;5030022;28;20128;-80
2022/03/19 04:52:53;;;;;;;5.82;1.55;;;;;;;11.63;84.11;100756.75;5030287;28;20111;-80
2022/03/19 04:55:24;;;;;;;1.15;0.50;;;;;;;11.64;81.40;100755.06;5031137;28;20045;-80
2022/03/19 04:57:52;;;;;;;1.20;0.50;;;;;;;11.65;81.65;100747.31;5031207;28;20057;-81
2022/03/19 05:00:21;;;;;;;2.88;0.68;;;;;;;11.66;81.40;100743.00;5030778;28;20053;-80
2022/03/19 05:02:50;;;;;;;1.48;0.52;;;;;;;11.69;80.38;100750.88;5029766;28;20050;-80
2022/03/19 05:05:19;;;;;;;1.70;0.60;;;;;;;11.69;82.27;100743.09;5029305;28;20625;-78
2022/03/19 05:07:47;;;;;;;2.88;0.98;;;;;;;11.72;81.90;100748.34;5030612;28;20101;-78
2022/03/19 05:13:03;;;;;;;1.67;0.63;;;;;;;11.73;81.68;100755.31;5020332;28;20131;-80
2022/03/19 05:15:32;;;;;;;1.35;0.65;;;;;;;11.75;80.89;100753.63;5030544;28;20469;-80
2022/03/19 05:18:00;;;;;;;3.40;0.82;;;;;;;11.76;80.18;100747.59;5030756;28;20042;-78
2022/03/19 05:20:38;;;;;;;1.27;0.50;;;;;;;11.76;80.66;100734.63;5029738;28;20041;-78
2022/03/19 05:23:07;;;;;;;2.45;0.68;;;;;;;11.77;80.12;100740.69;5030175;28;20155;-78
2022/03/19 05:25:36;;;;;;;0.80;0.50;;;;;;;11.75;80.40;100738.06;5029796;28;20496;-77
2022/03/19 05:28:06;;;;;;;1.80;0.70;;;;;;;11.75;80.79;100735.47;5029819;28;20082;-78
2022/03/19 05:30:35;;;;;;;4.03;0.40;;;;;;;11.77;80.78;100740.69;5037027;28;20134;-79
2022/03/19 05:33:10;;;;;;;1.60;0.52;;;;;;;11.76;81.01;100732.03;5042795;28;20179;-78
2022/03/19 05:35:39;;;;;;;0.55;0.47;;;;;;;11.76;80.20;100734.63;5029457;28;20581;-79
2022/03/19 05:38:07;;;;;;;0.70;0.55;;;;;;;11.76;80.78;100726.84;5030702;28;20076;-80
2022/03/19 05:40:36;;;;;;;2.72;0.70;;;;;;;11.74;81.83;100728.53;5030032;28;20064;-77
2022/03/19 05:43:06;;;;;;;0.90;0.60;;;;;;;11.67;81.38;100716.25;5029327;28;20136;-78
2022/03/19 05:45:35;;;;;;;0.98;0.68;;;;;;;11.64;82.00;100713.59;5029362;28;20103;-78
2022/03/19 05:48:03;;;;;;;0.63;0.40;;;;;;;11.64;81.34;100718.78;5028974;28;20399;-81
2022/03/19 05:50:32;;;;;;;3.25;0.75;;;;;;;11.57;82.87;100707.38;5029420;28;20049;-78
2022/03/19 05:53:00;;;;;;;1.92;0.80;;;;;;;11.48;85.35;100705.44;5029682;28;20046;-78
2022/03/19 05:55:29;;;;;;;6.25;0.77;;;;;;;11.43;84.85;100696.69;5029380;28;20045;-77
2022/03/19 05:57:57;;;;;;;1.17;0.60;;;;;;;11.44;83.73;100701.00;5029515;28;20050;-77
2022/03/19 06:00:27;;;;;;;2.15;0.73;;;;;;;11.43;83.31;100704.47;5029497;28;20054;-77
2022/03/19 06:02:56;;;;;;;3.25;0.82;;;;;;;11.42;82.84;100707.00;5029007;28;20112;-77
2022/03/19 06:05:25;;;;;;;1.60;0.77;;;;;;;11.40;83.17;100704.34;5030175;28;20065;-77
2022/03/19 06:07:54;;;;;;;0.93;0.80;;;;;;;11.38;82.82;100690.50;5031621;28;20049;-78
2022/03/19 06:10:22;;;;;;;1.35;0.80;;;;;;;11.38;82.21;100690.50;5028590;28;20045;-78
2022/03/19 06:12:51;;;;;;;3.53;1.05;;;;;;;11.37;82.17;100687.88;5028494;28;20049;-77
2022/03/19 06:15:19;;;;;;;4.80;1.00;;;;;;;11.36;81.92;100692.19;5029216;28;20139;-77
2022/03/19 06:17:50;;;;;;;2.03;0.98;;;;;;;11.32;82.32;100683.44;5048810;28;20440;-77
2022/03/19 06:20:22;;;;;;;1.90;0.80;;;;;;;11.32;83.42;100685.19;5049125;28;20483;-77
2022/03/19 06:22:51;;;;;;;1.58;0.70;;;;;;;11.31;82.60;100686.00;5049181;28;20049;-78
2022/03/19 06:25:19;;;;;;;2.28;0.60;;;;;;;11.25;79.57;100678.09;5048270;28;20080;-77
2022/03/19 06:27:48;;;;;;;3.85;0.95;;;;;;;11.32;82.30;100695.53;5049134;28;20087;-77
2022/03/19 06:30:16;;;;;;;3.38;0.70;;;;;;;11.29;81.84;100701.53;5034871;28;20103;-77
2022/03/19 06:32:51;;;;;;;3.80;0.80;;;;;;;11.31;81.12;100699.84;5041961;28;20079;-77
2022/03/19 06:38:03;;;;;;;1.20;0.60;;;;;;;11.30;79.49;100692.03;5027901;28;20053;-76
2022/03/19 06:40:31;;;;;;;1.23;0.55;;;;;;;11.29;78.95;100690.25;5018157;28;20097;-77
2022/03/19 06:43:00;;;;;;;2.42;0.50;;;;;;;11.27;79.56;100682.47;5011630;28;20061;-77
2022/03/19 06:45:28;;;;;;;2.65;0.85;;;;;;;11.25;80.72;100691.91;5028456;28;20096;-77
2022/03/19 06:47:57;;;;;;;2.15;0.75;;;;;;;11.21;79.75;100695.25;5029129;28;20091;-77
2022/03/19 06:50:27;;;;;;;1.67;0.73;;;;;;;11.17;80.91;100684.78;5028707;28;20103;-77
2022/03/19 06:52:55;;;;;;;2.88;0.75;;;;;;;11.13;80.69;100675.16;5028528;28;20507;-77
2022/03/19 06:55:24;;;;;;;1.40;0.80;;;;;;;11.16;80.90;100672.69;5028855;28;20045;-76
2022/03/19 06:57:53;;;;;;;0.70;0.50;;;;;;;11.14;79.63;100664.84;5029233;28;20054;-76
2022/03/19 07:00:21;;;;;;;1.55;0.50;;;;;;;11.18;78.62;100670.97;5028967;28;20586;-77
2022/03/19 07:02:52;;;;;;;0.95;0.60;;;;;;;11.17;78.62;100675.28;5029598;28;20160;-76
2022/03/19 07:05:24;;;;;;;2.35;0.70;;;;;;;11.17;78.64;100667.50;5029318;28;20060;-77
2022/03/19 07:07:55;;;;;;;1.95;0.80;;;;;;;11.20;78.83;100669.31;5029142;28;20045;-76
2022/03/19 07:10:23;;;;;;;2.45;1.10;;;;;;;11.18;80.97;100660.63;5027722;28;20057;-76
2022/03/19 07:12:54;;;;;;;2.53;0.70;;;;;;;11.14;79.07;100654.50;5028906;28;20053;-77
2022/03/19 07:15:24;;;;;;;2.20;0.85;;;;;;;11.10;79.73;100658.72;5029302;28;20107;-77
2022/03/19 07:17:53;;;;;;;0.98;0.60;;;;;;;11.07;82.97;100642.25;5028732;28;20087;-77
2022/03/19 07:20:21;;;;;;;4.53;1.25;;;;;;;11.03;80.56;100654.22;5028388;28;20450;-77
2022/03/19 07:22:54;;;;;;;2.17;0.70;;;;;;;11.00;80.61;100654.16;5028666;28;20046;-77
2022/03/19 07:25:24;;;;;;;3.40;0.80;;;;;;;10.97;82.64;100635.97;5028687;28;20054;-77
2022/03/19 07:27:55;;;;;;;1.13;0.70;;;;;;;11.02;81.73;100649.00;5028988;28;20492;-76
2022/03/19 07:30:24;;;;;;;1.23;0.65;;;;;;;11.01;80.51;100648.13;5027901;28;20053;-77
2022/03/19 07:32:52;;;;;;;3.03;1.08;;;;;;;11.05;81.64;100638.72;5029945;28;20108;-76
2022/03/19 07:35:21;;;;;;;3.65;0.82;;;;;;;11.06;86.17;100636.19;5029273;28;20050;-77
2022/03/19 07:37:50;;;;;;;3.08;0.82;;;;;;;10.99;81.34;100634.25;5031863;28;20125;-77
2022/03/19 07:43:04;;;;;;;2.05;0.50;;;;;;;10.97;83.24;100629.88;5030534;28;20053;-78
2022/03/19 07:45:32;;;;;;;6.15;1.08;;;;;;;10.91;83.29;100622.84;5013676;28;20085;-77
2022/03/19 07:48:01;;;;;;;1.60;0.80;;;;;;;10.89;82.06;100622.78;5012802;28;20054;-77
2022/03/19 07:50:29;;;;;;;0.90;0.52;;;;;;;10.93;82.01;100617.72;5011653;28;20058;-76
2022/03/19 07:52:59;;;;;;;1.70;0.82;;;;;;;10.95;82.38;100616.91;5011463;28;20108;-77
2022/03/19 07:55:29;;;;;;;4.65;0.90;;;;;;;10.94;83.91;100612.56;5011260;28;20061;-78
2022/03/19 07:57:57;;;;;;;2.38;0.57;;;;;;;10.95;81.58;100611.72;5012477;28;20077;-78
2022/03/19 08:00:26;;;;;;;1.45;0.98;;;;;;;10.96;81.44;100605.72;5013981;28;20054;-78
2022/03/19 08:02:54;;;;;;;1.13;0.65;;;;;;;10.95;81.55;100611.72;5030484;28;20057;-79
2022/03/19 08:05:23;;;;;;;2.03;0.65;;;;;;;10.95;82.17;100619.50;5031533;28;20513;-77
2022/03/19 08:07:52;;;;;;;1.73;0.70;;;;;;;10.98;82.26;100619.56;5031758;28;20045;-78
2022/03/19 08:10:21;;;;;;;0.50;0.50;;;;;;;11.01;82.46;100618.78;5031311;28;20492;-77
2022/03/19 08:12:52;;;;;;;1.92;0.68;;;;;;;11.03;81.85;100620.56;5031228;28;20078;-78
2022/03/19 08:15:21;;;;;;;0.80;0.50;;;;;;;11.05;82.11;100630.97;5031708;28;20573;-78
2022/03/19 08:17:49;;;;;;;0.75;0.52;;;;;;;11.08;82.10;100611.19;5031283;28;20053;-77
2022/03/19 08:20:18;;;;;;;0.88;0.40;;;;;;;11.09;81.85;100600.00;5031613;28;20045;-77
2022/03/19 08:22:47;;;;;;;1.73;0.50;;;;;;;11.14;82.45;100612.19;5031138;28;20050;-77
2022/03/19 08:25:15;;;;;;;1.00;0.55;;;;;;;11.13;81.50;100613.00;5031429;28;20151;-77
2022/03/19 08:27:45;;;;;;;2.78;0.95;;;;;;;11.13;81.23;100602.66;5031244;28;20050;-77
2022/03/19 08:30:15;;;;;;;1.27;0.50;;;;;;;11.16;81.01;100595.84;5030305;28;20053;-77
2022/03/19 08:32:44;;;;;;;1.60;0.60;;;;;;;11.20;81.35;100597.69;5031783;28;20052;-77
2022/03/19 08:35:13;;;;;;;0.93;0.50;;;;;;;11.20;81.19;100604.56;5031395;28;20042;-77
2022/03/19 08:37:41;;;;;;;1.65;0.73;;;;;;;11.27;81.30;100609.03;5031039;28;20128;-77
2022/03/19 08:40:21;;;;;;;1.45;0.50;;;;;;;11.28;80.90;100605.63;5031546;28;20133;-77
2022/03/19 08:42:52;;;;;;;1.67;0.70;;;;;;;11.29;81.31;100597.00;5030770;28;20067;-77
2022/03/19 08:45:24;;;;;;;1.30;0.50;;;;;;;11.30;80.77;100585.81;5030474;28;20053;-77
2022/03/19 08:47:52;;;;;;;1.45;0.50;;;;;;;11.28;81.21;100590.97;5030514;28;20077;-77
2022/03/19 08:50:21;;;;;;;1.42;0.60;;;;;;;11.25;81.13;100592.63;5030371;28;20121;-76
2022/03/19 08:52:49;;;;;;;2.05;0.70;;;;;;;11.23;80.98;100589.13;5030652;28;20076;-77
2022/03/19 08:55:18;;;;;;;2.83;0.60;;;;;;;11.21;81.52;100590.78;5031269;28;20484;-77
2022/03/19 08:57:46;;;;;;;3.10;0.85;;;;;;;11.22;81.41;100589.94;5033288;28;20127;-77
2022/03/19 09:00:15;;;;;;;1.80;0.70;;;;;;;11.19;80.79;100585.56;5030775;28;20053;-77
2022/03/19 09:02:46;;;;;;;2.90;0.63;;;;;;;11.17;81.15;100589.81;5029475;28;20081;-77
2022/03/19 09:05:14;;;;;;;3.33;0.68;;;;;;;11.17;82.01;100584.66;5030140;28;20658;-76
2022/03/19 09:07:43;;;;;;;3.83;0.90;;;;;;;11.17;81.34;100582.06;5029643;28;20056;-77
2022/03/19 09:10:12;;;;;;;1.13;0.75;;;;;;;11.16;81.27;100579.44;5030127;28;20092;-77
2022/03/19 09:12:41;;;;;;;2.90;1.05;;;;;;;11.14;81.69;100583.72;5027800;28;20048;-77
2022/03/19 09:15:11;;;;;;;1.27;0.60;;;;;;;11.10;82.41;100583.63;5020704;28;20133;-77
2022/03/19 09:17:40;;;;;;;2.85;0.75;;;;;;;11.08;81.77;100587.00;5020245;28;20107;-76
2022/03/19 09:20:12;;;;;;;2.88;0.98;;;;;;;11.08;81.57;100579.25;5013519;28;20109;-77
2022/03/19 09:22:40;;;;;;;2.63;0.75;;;;;;;11.06;81.19;100579.22;5028187;28;20494;-77
2022/03/19 09:25:09;;;;;;;2.35;0.90;;;;;;;11.04;81.47;100588.66;5028333;28;20041;-77
2022/03/19 09:27:39;;;;;;;1.45;0.50;;;;;;;11.04;81.67;100578.31;5028335;28;20067;-78
2022/03/19 09:30:09;;;;;;;1.33;0.60;;;;;;;11.04;81.18;100575.72;5019643;28;20058;-77
2022/03/19 09:32:38;;;;;;;2.33;0.90;;;;;;;11.06;80.83;100574.03;5009448;28;20065;-76
2022/03/19 09:35:08;;;;;;;1.65;0.70;;;;;;;11.06;80.77;100571.47;5028326;28;20093;-77
2022/03/19 09:37:44;;;;;;;2.45;0.70;;;;;;;11.06;80.87;100579.22;5028368;28;20042;-77
2022/03/19 09:40:13;;;;;;;5.60;0.80;;;;;;;11.07;81.30;100578.38;5028343;28;20053;-77
2022/03/19 09:42:49;;;;;;;0.60;0.57;;;;;;;11.07;81.19;100580.09;5028084;28;20041;-78
2022/03/19 09:45:20;;;;;;;1.80;0.90;;;;;;;11.07;81.13;100580.09;5028445;28;20076;-77
2022/03/19 09:47:49;;;;;;;4.80;0.85;;;;;;;11.06;81.77;100570.56;5014738;28;20121;-77
2022/03/19 09:50:18;;;;;;;4.10;1.00;;;;;;;11.06;82.47;100574.03;5027499;28;20113;-78
2022/03/19 09:52:52;;;;;;;2.83;1.00;;;;;;;11.01;82.76;100573.03;5028013;28;20072;-78
2022/03/19 09:55:26;;;;;;;2.90;0.75;;;;;;;10.99;83.64;100573.84;5029609;28;20060;-77
2022/03/19 09:57:55;;;;;;;1.60;0.68;;;;;;;10.94;85.31;100565.09;5030881;28;20380;-79
2022/03/19 10:00:24;;;;;;;1.88;0.80;;;;;;;10.89;86.52;100559.78;5026085;28;20041;-82
2022/03/19 10:02:56;;;;;;;4.10;1.38;;;;;;;10.84;88.93;100561.41;5025320;28;20041;-79
2022/03/19 10:11:10;;;;;;;1.92;0.82;;;;;;;10.64;100.00;100548.81;5009252;28;20053;-80
2022/03/19 10:13:40;;;;;;;2.47;1.00;;;;;;;10.59;100.00;100558.19;5035006;28;20487;-80
2022/03/19 10:16:10;;;;;;;2.38;0.95;;;;;;;10.55;100.00;100553.75;5032002;28;20479;-79
2022/03/19 10:18:45;;;;;;;4.63;1.15;;;;;;;10.49;100.00;100558.78;5046170;28;20084;-79
2022/03/19 10:21:16;;;;;;;4.57;1.27;;;;;;;10.46;100.00;100559.56;5045459;28;20106;-79
2022/03/19 10:23:46;;;;;;;1.52;0.75;;;;;;;10.45;100.00;100551.78;5045762;28;20045;-79
2022/03/19 10:26:26;;;;;;;1.42;0.57;;;;;;;10.42;100.00;100551.66;5045884;28;20772;-80
2022/03/19 10:29:02;;;;;;;4.15;0.98;;;;;;;10.39;100.00;100536.06;5043349;28;20126;-79
2022/03/19 10:31:32;;;;;;;2.63;1.00;;;;;;;10.34;100.00;100542.84;5035531;28;20440;-78
2022/03/19 10:34:02;;;;;;;1.52;0.60;;;;;;;10.29;100.00;100536.69;5037609;28;20574;-80
2022/03/19 10:36:35;;;;;;;1.63;0.70;;;;;;;10.22;100.00;100535.59;5025385;28;20107;-79
2022/03/19 10:39:08;;;;;;;0.77;0.50;;;;;;;10.18;100.00;100520.84;5025889;28;20495;-79
2022/03/19 10:41:37;;;;;;;0.68;0.57;;;;;;;10.15;100.00;100520.75;5018300;28;20085;-79
2022/03/19 10:44:13;;;;;;;2.42;0.40;;;;;;;10.06;100.00;100527.41;5008406;28;20166;-80
2022/03/19 10:46:48;;;;;;;1.30;0.50;;;;;;;10.04;100.00;100523.03;5014581;28;20068;-80
2022/03/19 10:49:17;;;;;;;2.10;0.60;;;;;;;10.05;100.00;100515.31;5012233;28;20037;-78
2022/03/19 10:51:47;;;;;;;4.68;0.52;;;;;;;10.01;100.00;100512.59;5023997;28;20050;-79
2022/03/19 10:54:17;;;;;;;5.03;0.73;;;;;;;10.00;100.00;100511.72;5027932;28;20077;-80
2022/03/19 10:56:47;;;;;;;1.10;0.47;;;;;;;10.01;100.00;100507.41;5027733;28;20049;-79
2022/03/19 10:59:16;;;;;;;2.25;0.80;;;;;;;9.96;100.00;100496.97;5026172;28;20045;-80
2022/03/19 11:01:46;;;;;;;4.00;0.88;;;;;;;9.93;100.00;100503.75;5026275;28;20415;-79
2022/03/19 11:04:16;;;;;;;0.90;0.50;;;;;;;9.94;100.00;100497.75;5025633;28;20049;-80
2022/03/19 11:06:46;;;;;;;4.70;0.50;;;;;;;9.93;100.00;100498.59;5026513;28;20301;-79
2022/03/19 11:09:20;;;;;;;1.92;0.73;;;;;;;9.91;100.00;100484.75;5025181;28;20684;-80
2022/03/19 11:11:55;;;;;;;2.25;0.43;;;;;;;9.85;100.00;100480.31;5028946;28;20107;-79
2022/03/19 11:14:25;;;;;;;0.73;0.40;;;;;;;9.86;100.00;100482.91;5029911;28;20128;-80
2022/03/19 11:19:47;;;;;;;1.20;0.40;;;;;;;9.90;100.00;100490.78;5030007;28;20048;-80
2022/03/19 11:22:16;;;;;;;2.53;0.40;;;;;;;9.88;100.00;100487.25;5028658;28;20111;-80
2022/03/19 11:24:55;;;;;;;2.15;0.57;;;;;;;9.87;100.00;100483.78;5029799;28;20045;-79
2022/03/19 11:27:25;;;;;;;1.08;0.40;;;;;;;9.86;100.00;100488.06;5030369;28;20196;-78
2022/03/19 11:29:54;;;;;;;3.63;0.73;;;;;;;9.86;100.00;100493.25;5030614;28;20056;-79
2022/03/19 11:32:24;;;;;;;3.92;0.80;;;;;;;9.84;100.00;100483.69;5029565;28;20057;-81
2022/03/19 11:34:57;;;;;;;2.65;0.75;;;;;;;9.83;100.00;100488.00;5031564;28;20057;-81
2022/03/19 11:37:25;;;;;;;2.85;0.30;;;;;;;9.83;100.00;100487.13;5029199;28;20045;-79
2022/03/19 11:40:07;;;;;;;2.50;0.35;;;;;;;9.80;100.00;100487.94;5028990;28;20049;-80
2022/03/19 11:42:35;;;;;;;2.40;0.47;;;;;;;9.79;100.00;100486.16;5048491;28;20044;-81
2022/03/19 11:45:11;;;;;;;0.90;0.45;;;;;;;9.77;100.00;100482.66;5049234;28;20060;-83
2022/03/19 11:47:40;;;;;;;2.38;0.50;;;;;;;9.78;100.00;100484.41;5049033;28;20040;-84
2022/03/19 11:50:20;;;;;;;1.85;0.75;;;;;;;9.79;100.00;100481.00;5049681;28;20128;-83
2022/03/19 11:53:06;;;;;;;1.75;0.65;;;;;;;9.76;100.00;100483.50;5052384;28;20037;-85
2022/03/19 11:55:41;;;;;;;1.17;0.57;;;;;;;9.73;100.00;100470.47;5049477;28;20111;-82